Spabunker 51 — ECNA — position and weather

sailwx.info

Track history (hours):
 
Tides and Currents Weather Stations Pressure Air Temp Water Temp Dewpoint Dewpoint Depression Visibility Wind Speed Wind Dir Waves Ship Positions

Spabunker 51

Last reported at 2016-Sep-07 21:33 UTC. Time now 2016-Sep-26 15:40 UTC.
Position N 36°09' W 005°25'.
Warning: this ship's position is 18 days out of date.

Length 84 m; draft 5.8 m.

Type: Tanker. MMSI: 224322240.

Date/timePositionNaut miles runAvg speedWind from/ knotsBaromVisibWave heightAir tempDewpointWater temp
2016-Sep-07 21:33N 36°09' W 005°25'0 0.0
2016-Sep-07 20:34N 36°09' W 005°25'0 0.0
2016-Sep-07 19:18N 36°09' W 005°25'0 0.0
2016-Sep-07 18:12N 36°09' W 005°25'1 1.6
2016-Sep-07 17:34N 36°10' W 005°24'0 0.0
2016-Sep-07 16:33N 36°10' W 005°24'0 0.0
2016-Sep-07 15:33N 36°10' W 005°24'1 0.1
2016-Sep-06 17:13N 36°09' W 005°26'0 0.0
2016-Sep-06 16:33N 36°10' W 005°26'0 0.1
2016-Sep-06 15:34N 36°10' W 005°26'0 0.0
2016-Sep-06 14:33N 36°10' W 005°26'0 0.0
2016-Sep-06 13:27N 36°10' W 005°26'1 0.0
2016-Sep-05 23:30N 36°09' W 005°26'3 3.4
2016-Sep-05 22:33N 36°06' W 005°24'0 0.1
2016-Sep-05 21:31N 36°06' W 005°24'0 0.0
2016-Sep-05 15:05N 36°06' W 005°24'0 0.2
2016-Sep-05 14:33N 36°06' W 005°24'  
2016-Aug-30 02:32N 36°11' W 005°24'0 0.0
2016-Aug-29 23:34N 36°11' W 005°24'0 0.0
2016-Aug-29 22:32N 36°11' W 005°24'2 0.2
2016-Aug-29 15:04N 36°09' W 005°24'0 0.1
2016-Aug-29 14:12N 36°09' W 005°24'0 0.1
2016-Aug-29 13:14N 36°09' W 005°24'0 0.1
2016-Aug-29 10:10N 36°09' W 005°24'0 0.0
2016-Aug-29 09:23N 36°09' W 005°24'  
Track history (hours):
 
Tides and Currents Weather Stations Pressure Air Temp Water Temp Dewpoint Dewpoint Depression Visibility Wind Speed Wind Dir Waves Ship Positions

Spabunker 51

Last reported at 2016-Sep-07 21:33 UTC. Time now 2016-Sep-26 15:40 UTC.
Position N 36°09' W 005°25'.
Warning: this ship's position is 18 days out of date.

Length 84 m; draft 5.8 m.

Type: Tanker. MMSI: 224322240.

Date/timePositionNaut miles runAvg speedWind from/ knotsBaromVisibWave heightAir tempDewpointWater temp
2016-Sep-07 21:33N 36°09' W 005°25'0 0.0
2016-Sep-07 20:34N 36°09' W 005°25'0 0.0
2016-Sep-07 19:18N 36°09' W 005°25'0 0.0
2016-Sep-07 18:12N 36°09' W 005°25'1 1.6
2016-Sep-07 17:34N 36°10' W 005°24'0 0.0
2016-Sep-07 16:33N 36°10' W 005°24'0 0.0
2016-Sep-07 15:33N 36°10' W 005°24'1 0.1
2016-Sep-06 17:13N 36°09' W 005°26'0 0.0
2016-Sep-06 16:33N 36°10' W 005°26'0 0.1
2016-Sep-06 15:34N 36°10' W 005°26'0 0.0
2016-Sep-06 14:33N 36°10' W 005°26'0 0.0
2016-Sep-06 13:27N 36°10' W 005°26'1 0.0
2016-Sep-05 23:30N 36°09' W 005°26'3 3.4
2016-Sep-05 22:33N 36°06' W 005°24'0 0.1
2016-Sep-05 21:31N 36°06' W 005°24'0 0.0
2016-Sep-05 15:05N 36°06' W 005°24'0 0.2
2016-Sep-05 14:33N 36°06' W 005°24'  
2016-Aug-30 02:32N 36°11' W 005°24'0 0.0
2016-Aug-29 23:34N 36°11' W 005°24'0 0.0
2016-Aug-29 22:32N 36°11' W 005°24'2 0.2
2016-Aug-29 15:04N 36°09' W 005°24'0 0.1
2016-Aug-29 14:12N 36°09' W 005°24'0 0.1
2016-Aug-29 13:14N 36°09' W 005°24'0 0.1
2016-Aug-29 10:10N 36°09' W 005°24'0 0.0
2016-Aug-29 09:23N 36°09' W 005°24'  

Dump ship's entire track history